createdAt,value
2023-05-04T00:01:39.980Z,102674.13
2023-05-04T00:04:44.884Z,102676.59
2023-05-04T00:07:48.495Z,102668.78
2023-05-04T00:10:52.063Z,102676.59
2023-05-04T00:13:55.596Z,102669.47
2023-05-04T00:16:59.063Z,102673.00
2023-05-04T00:20:04.345Z,102666.06
2023-05-04T00:23:08.018Z,102668.50
2023-05-04T00:26:11.580Z,102668.50
2023-05-04T00:29:15.026Z,102658.09
2023-05-04T00:32:18.501Z,102652.91
2023-05-04T00:35:23.381Z,102648.50
2023-05-04T00:38:27.023Z,102646.78
2023-05-04T00:41:30.688Z,102646.78
2023-05-04T00:44:34.713Z,102653.78
2023-05-04T00:47:38.369Z,102637.22
2023-05-04T00:50:43.811Z,102642.41
2023-05-04T00:53:47.518Z,102638.13
2023-05-04T00:56:52.235Z,102642.44
2023-05-04T00:59:56.109Z,102643.19
2023-05-04T01:02:59.681Z,102635.31
2023-05-04T01:06:18.684Z,102636.19
2023-05-04T01:09:35.364Z,102640.53
2023-05-04T01:12:45.806Z,102633.50
2023-05-04T01:15:51.026Z,102637.03
2023-05-04T01:18:54.488Z,102629.19
2023-05-04T01:21:59.411Z,102630.88
2023-05-04T01:25:03.349Z,102623.94
2023-05-04T01:28:13.694Z,102628.25
2023-05-04T01:31:24.013Z,102631.69
2023-05-04T01:34:27.716Z,102624.75
2023-05-04T01:37:32.819Z,102626.44
2023-05-04T01:40:36.384Z,102621.94
2023-05-04T01:43:39.933Z,102624.63
2023-05-04T01:46:43.692Z,102613.34
2023-05-04T01:49:47.300Z,102609.03
2023-05-04T01:52:52.388Z,102618.53
2023-05-04T01:55:55.872Z,102621.94
2023-05-04T01:58:59.349Z,102620.25
2023-05-04T02:02:03.162Z,102613.25
2023-05-04T02:05:07.409Z,102610.72
2023-05-04T02:08:12.264Z,102608.91
2023-05-04T02:11:16.333Z,102609.75
2023-05-04T02:14:19.868Z,102608.84
2023-05-04T02:17:23.364Z,102601.06
2023-05-04T02:20:26.976Z,102605.41
2023-05-04T02:23:32.064Z,102603.59
2023-05-04T02:26:36.315Z,102598.38
2023-05-04T02:29:40.785Z,102591.41
2023-05-04T02:32:44.410Z,102598.34
2023-05-04T02:35:47.861Z,102598.28
2023-05-04T02:38:52.764Z,102592.25
2023-05-04T02:41:56.228Z,102587.78
2023-05-04T02:44:59.720Z,102581.75
2023-05-04T02:48:03.345Z,102582.56
2023-05-04T02:51:07.549Z,102581.69
2023-05-04T02:54:12.389Z,102579.94
2023-05-04T02:57:15.893Z,102580.72
2023-05-04T03:00:19.919Z,102578.06
2023-05-04T03:03:23.549Z,102579.78
2023-05-04T03:06:27.073Z,102578.84
2023-05-04T03:09:32.085Z,102577.09
2023-05-04T03:12:35.628Z,102570.97
2023-05-04T03:15:39.279Z,102572.66
2023-05-04T03:18:42.749Z,102565.66
2023-05-04T03:21:46.377Z,102562.25
2023-05-04T03:24:51.320Z,102563.06
2023-05-04T03:27:54.960Z,102569.22
2023-05-04T03:30:58.608Z,102564.91
2023-05-04T03:34:02.129Z,102564.00
2023-05-04T03:37:05.661Z,102560.53
2023-05-04T03:40:11.970Z,102562.28
2023-05-04T03:43:15.449Z,102565.72
2023-05-04T03:46:19.048Z,102557.97
2023-05-04T03:49:22.760Z,102555.44
2023-05-04T03:52:26.429Z,102557.25
2023-05-04T03:55:31.372Z,102549.50
2023-05-04T03:58:34.854Z,102543.38
2023-05-04T04:01:38.837Z,102543.47
2023-05-04T04:04:42.802Z,102540.13
2023-05-04T04:07:46.372Z,102534.03
2023-05-04T04:10:51.461Z,102530.66
2023-05-04T04:13:55.183Z,102535.06
2023-05-04T04:16:58.634Z,102541.28
2023-05-04T04:20:02.277Z,102540.47
2023-05-04T04:23:06.026Z,102542.34
2023-05-04T04:26:11.106Z,102541.59
2023-05-04T04:29:25.699Z,102543.38
2023-05-04T04:32:29.194Z,102548.69
2023-05-04T04:35:33.521Z,102551.41
2023-05-04T04:38:37.936Z,102543.63
2023-05-04T04:41:42.768Z,102548.81
2023-05-04T04:44:46.728Z,102549.81
2023-05-04T04:47:50.443Z,102548.97
2023-05-04T04:50:54.421Z,102544.03
2023-05-04T04:53:58.068Z,102544.09
2023-05-04T04:57:02.899Z,102547.69
2023-05-04T05:00:09.982Z,102547.03
2023-05-04T05:03:13.922Z,102548.94
2023-05-04T05:06:17.652Z,102553.38
2023-05-04T05:09:21.351Z,102551.75
2023-05-04T05:12:26.229Z,102549.31
2023-05-04T05:15:29.720Z,102550.41
2023-05-04T05:18:36.832Z,102548.00
2023-05-04T05:21:40.371Z,102551.59
2023-05-04T05:24:44.032Z,102553.56
2023-05-04T05:27:48.921Z,102544.19
2023-05-04T05:30:52.845Z,102540.94
2023-05-04T05:33:56.408Z,102542.16
2023-05-04T05:37:00.226Z,102544.00
2023-05-04T05:40:06.524Z,102555.50
2023-05-04T05:43:11.775Z,102558.22
2023-05-04T05:46:15.956Z,102545.34
2023-05-04T05:49:19.828Z,102540.28
2023-05-04T05:52:23.485Z,102538.44
2023-05-04T05:55:27.116Z,102536.81
2023-05-04T05:58:32.215Z,102536.88
2023-05-04T06:01:35.719Z,102534.31
2023-05-04T06:04:39.372Z,102539.63
2023-05-04T06:07:42.958Z,102535.25
2023-05-04T06:10:48.040Z,102530.00
2023-05-04T06:13:52.992Z,102530.03
2023-05-04T06:16:56.689Z,102527.41
2023-05-04T06:20:00.790Z,102524.81
2023-05-04T06:23:04.291Z,102522.19
2023-05-04T06:26:07.995Z,102516.06
2023-05-04T06:29:12.926Z,102516.06
2023-05-04T06:32:16.770Z,102513.47
2023-05-04T06:35:20.547Z,102514.31
2023-05-04T06:38:24.148Z,102511.72
2023-05-04T06:41:27.730Z,102504.69
2023-05-04T06:44:35.766Z,102493.22
2023-05-04T06:47:39.651Z,102494.81
2023-05-04T06:50:43.181Z,102490.28
2023-05-04T06:53:46.696Z,102484.97
2023-05-04T06:56:50.796Z,102490.19
2023-05-04T06:59:55.672Z,102490.19
2023-05-04T07:02:59.346Z,102493.41
2023-05-04T07:06:03.750Z,102477.94
2023-05-04T07:09:08.387Z,102471.78
2023-05-04T07:12:11.851Z,102466.94
2023-05-04T07:15:34.722Z,102465.69
2023-05-04T07:18:38.942Z,102461.75
2023-05-04T07:21:42.818Z,102470.59
2023-05-04T07:24:46.818Z,102470.06
2023-05-04T07:27:50.491Z,102461.38
2023-05-04T07:30:55.418Z,102457.00
2023-05-04T07:33:59.165Z,102449.56
2023-05-04T07:37:05.262Z,102447.97
2023-05-04T07:40:10.484Z,102449.03
2023-05-04T07:43:14.130Z,102443.31
2023-05-04T07:46:19.140Z,102440.78
2023-05-04T07:49:22.788Z,102431.88
2023-05-04T07:52:26.354Z,102428.44
2023-05-04T07:55:30.964Z,102428.72
2023-05-04T07:58:34.453Z,102430.19
2023-05-04T08:01:40.839Z,102429.13
2023-05-04T08:04:45.432Z,102417.88
2023-05-04T08:07:49.018Z,102419.06
2023-05-04T08:10:52.813Z,102413.22
2023-05-04T08:13:56.327Z,102414.09
2023-05-04T08:17:01.308Z,102406.97
2023-05-04T08:20:05.648Z,102408.47
2023-05-04T08:23:09.200Z,102392.94
2023-05-04T08:26:12.713Z,102399.88
2023-05-04T08:29:17.817Z,102395.72
2023-05-04T08:32:22.667Z,102391.50
2023-05-04T08:35:27.909Z,102380.97
2023-05-04T08:38:31.375Z,102391.78
2023-05-04T08:41:36.337Z,102387.38
2023-05-04T08:44:40.752Z,102387.75
2023-05-04T08:47:47.008Z,102390.31
2023-05-04T08:50:51.067Z,102384.91
2023-05-04T08:53:56.457Z,102377.47
2023-05-04T08:57:00.307Z,102372.28
2023-05-04T09:00:05.747Z,102367.97
2023-05-04T09:03:12.656Z,102364.59
2023-05-04T09:06:16.689Z,102363.34
2023-05-04T09:09:20.804Z,102356.19
2023-05-04T09:12:24.441Z,102355.25
2023-05-04T09:15:27.969Z,102357.19
2023-05-04T09:18:40.606Z,102361.47
2023-05-04T09:21:44.438Z,102355.94
2023-05-04T09:24:47.951Z,102352.81
2023-05-04T09:27:55.313Z,102344.78
2023-05-04T09:31:02.709Z,102343.75
2023-05-04T09:34:12.197Z,102346.72
2023-05-04T09:37:15.750Z,102344.47
2023-05-04T09:40:19.614Z,102321.94
2023-05-04T09:43:23.565Z,102321.03
2023-05-04T09:46:28.775Z,102327.56
2023-05-04T09:49:35.205Z,102325.59
2023-05-04T09:52:40.217Z,102317.41
2023-05-04T09:55:47.396Z,102312.00
2023-05-04T09:58:52.873Z,102320.56
2023-05-04T10:01:57.375Z,102318.69
2023-05-04T10:05:06.750Z,102314.63
2023-05-04T10:08:10.864Z,102315.06
2023-05-04T10:11:15.761Z,102316.31
2023-05-04T10:14:19.849Z,102312.78
2023-05-04T10:17:39.065Z,102316.28
2023-05-04T10:21:21.696Z,102311.44
2023-05-04T10:24:56.027Z,102310.63
2023-05-04T10:28:16.613Z,102295.38
2023-05-04T10:31:21.419Z,102304.41
2023-05-04T10:34:27.580Z,102296.84
2023-05-04T10:37:32.679Z,102292.03
2023-05-04T10:40:38.514Z,102277.88
2023-05-04T10:43:42.541Z,102281.75
2023-05-04T10:46:46.751Z,102272.94
2023-05-04T10:49:50.377Z,102268.53
2023-05-04T10:52:56.362Z,102267.13
2023-05-04T10:56:01.151Z,102256.47
2023-05-04T10:59:11.027Z,102246.31
2023-05-04T11:02:24.584Z,102243.03
2023-05-04T11:05:28.389Z,102232.00
2023-05-04T11:08:34.265Z,102232.28
2023-05-04T11:11:38.640Z,102228.44
2023-05-04T11:14:43.708Z,102220.53
2023-05-04T11:17:47.900Z,102223.88
2023-05-04T11:20:51.516Z,102213.53
2023-05-04T11:24:02.446Z,102209.59
2023-05-04T11:27:06.065Z,102205.97
2023-05-04T11:30:12.185Z,102204.09
2023-05-04T11:33:17.260Z,102205.50
2023-05-04T11:36:22.509Z,102190.78
2023-05-04T11:39:28.169Z,102195.84
2023-05-04T11:42:33.671Z,102186.91
2023-05-04T11:45:43.646Z,102177.66
2023-05-04T11:48:48.215Z,102178.66
2023-05-04T11:51:51.752Z,102169.03
2023-05-04T11:54:59.947Z,102170.28
2023-05-04T11:58:06.259Z,102168.09
2023-05-04T12:01:09.994Z,102159.38
2023-05-04T12:04:14.432Z,102147.03
2023-05-04T12:07:18.149Z,102157.22
2023-05-04T12:10:29.151Z,102160.72
2023-05-04T12:13:32.696Z,102149.72
2023-05-04T12:16:36.355Z,102158.06
2023-05-04T12:19:49.287Z,102150.94
2023-05-04T12:22:53.224Z,102148.22
2023-05-04T12:25:58.635Z,102147.94
2023-05-04T12:29:02.224Z,102140.16
2023-05-04T12:32:06.210Z,102133.59
2023-05-04T12:35:10.687Z,102137.97
2023-05-04T12:38:14.357Z,102129.63
2023-05-04T12:41:19.333Z,102127.78
2023-05-04T12:44:22.808Z,102127.09
2023-05-04T12:47:26.737Z,102127.47
2023-05-04T12:50:30.505Z,102122.91
2023-05-04T12:53:34.016Z,102126.81
2023-05-04T12:56:39.701Z,102125.50
2023-05-04T12:59:43.830Z,102122.16
2023-05-04T13:02:47.462Z,102120.19
2023-05-04T13:05:51.320Z,102117.94
2023-05-04T13:08:54.928Z,102115.03
2023-05-04T13:11:59.926Z,102107.81
2023-05-04T13:15:03.504Z,102097.59
2023-05-04T13:18:07.884Z,102089.38
2023-05-04T13:21:11.613Z,102084.59
2023-05-04T13:24:15.128Z,102079.00
2023-05-04T13:27:20.232Z,102078.03
2023-05-04T13:30:23.992Z,102077.13
2023-05-04T13:33:29.666Z,102066.50
2023-05-04T13:36:34.104Z,102059.50
2023-05-04T13:39:42.499Z,102063.38
2023-05-04T13:42:47.600Z,102061.78
2023-05-04T13:45:51.546Z,102050.66
2023-05-04T13:48:56.847Z,102047.84
2023-05-04T13:52:00.955Z,102041.25
2023-05-04T13:55:05.417Z,102037.53
2023-05-04T13:58:10.605Z,102039.53
2023-05-04T14:01:14.160Z,102023.59
2023-05-04T14:04:17.758Z,102015.84
2023-05-04T14:07:21.476Z,102020.00
2023-05-04T14:10:25.323Z,102013.63
2023-05-04T14:13:30.314Z,102007.88
2023-05-04T14:16:35.481Z,102002.91
2023-05-04T14:19:40.404Z,102002.66
2023-05-04T14:22:44.261Z,101998.03
2023-05-04T14:25:52.307Z,101991.91
2023-05-04T14:28:57.248Z,101988.28
2023-05-04T14:32:01.090Z,101991.75
2023-05-04T14:35:08.431Z,101984.94
2023-05-04T14:38:12.264Z,101976.31
2023-05-04T14:41:15.755Z,101978.53
2023-05-04T14:44:22.622Z,101980.75
2023-05-04T14:47:27.566Z,101976.03
2023-05-04T14:50:31.181Z,101972.72
2023-05-04T14:53:36.835Z,101963.03
2023-05-04T14:56:40.897Z,101958.28
2023-05-04T14:59:45.873Z,101959.31
2023-05-04T15:02:49.476Z,101950.78
2023-05-04T15:05:53.219Z,101947.88
2023-05-04T15:08:56.678Z,101941.25
2023-05-04T15:12:00.353Z,101933.53
2023-05-04T15:15:06.266Z,101929.38
2023-05-04T15:18:09.993Z,101926.22
2023-05-04T15:21:13.594Z,101916.28
2023-05-04T15:24:17.954Z,101921.63
2023-05-04T15:27:21.616Z,101920.22
2023-05-04T15:30:26.984Z,101916.28
2023-05-04T15:33:30.476Z,101916.19
2023-05-04T15:36:34.410Z,101922.47
2023-05-04T15:39:37.884Z,101918.84
2023-05-04T15:42:41.376Z,101915.28
2023-05-04T15:45:46.351Z,101922.81
2023-05-04T15:48:50.014Z,101912.94
2023-05-04T15:51:53.959Z,101906.13
2023-05-04T15:54:57.424Z,101908.22
2023-05-04T15:58:00.958Z,101904.81
2023-05-04T16:01:10.031Z,101898.78
2023-05-04T16:04:15.163Z,101891.41
2023-05-04T16:07:18.829Z,101891.03
2023-05-04T16:10:22.444Z,101887.53
2023-05-04T16:13:26.184Z,101887.13
2023-05-04T16:16:31.555Z,101881.84
2023-05-04T16:19:35.086Z,101879.19
2023-05-04T16:22:38.865Z,101876.94
2023-05-04T16:25:42.660Z,101868.47
2023-05-04T16:28:46.321Z,101859.44
2023-05-04T16:31:51.247Z,101867.66
2023-05-04T16:34:54.765Z,101863.78
2023-05-04T16:37:58.717Z,101860.56
2023-05-04T16:41:02.185Z,101855.88
2023-05-04T16:44:05.949Z,101854.19
2023-05-04T16:47:10.760Z,101855.47
2023-05-04T16:50:15.427Z,101845.88
2023-05-04T16:53:18.954Z,101845.28
2023-05-04T16:56:23.079Z,101841.44
2023-05-04T16:59:26.620Z,101839.13
2023-05-04T17:02:31.821Z,101835.69
2023-05-04T17:05:35.889Z,101846.34
2023-05-04T17:08:39.502Z,101848.56
2023-05-04T17:11:43.041Z,101842.91
2023-05-04T17:14:47.302Z,101842.13
2023-05-04T17:17:52.148Z,101840.84
2023-05-04T17:20:56.011Z,101841.84
2023-05-04T17:23:59.699Z,101841.19
2023-05-04T17:27:03.312Z,101843.16
2023-05-04T17:30:08.612Z,101835.22
2023-05-04T17:33:13.954Z,101837.50
2023-05-04T17:36:17.553Z,101837.38
2023-05-04T17:39:21.194Z,101842.94
2023-05-04T17:42:24.727Z,101838.19
2023-05-04T17:45:33.921Z,101839.22
2023-05-04T17:48:39.152Z,101837.88
2023-05-04T17:51:42.667Z,101835.53
2023-05-04T17:54:46.292Z,101831.34
2023-05-04T17:57:49.976Z,101830.56
2023-05-04T18:00:53.778Z,101832.94
2023-05-04T18:03:58.699Z,101826.88
2023-05-04T18:07:02.397Z,101831.69
2023-05-04T18:10:07.333Z,101829.19
2023-05-04T18:13:11.535Z,101835.63
2023-05-04T18:16:15.199Z,101841.13
2023-05-04T18:19:24.261Z,101838.19
2023-05-04T18:22:27.995Z,101845.03
2023-05-04T18:25:31.592Z,101844.72
2023-05-04T18:28:35.217Z,101836.50
2023-05-04T18:31:38.814Z,101852.13
2023-05-04T18:34:47.741Z,101847.16
2023-05-04T18:37:51.257Z,101853.88
2023-05-04T18:40:55.452Z,101862.16
2023-05-04T18:44:00.611Z,101866.84
2023-05-04T18:47:04.399Z,101871.53
2023-05-04T18:50:11.048Z,101866.50
2023-05-04T18:53:14.696Z,101868.63
2023-05-04T18:56:18.177Z,101870.59
2023-05-04T18:59:22.020Z,101878.03
2023-05-04T19:02:26.130Z,101875.69
2023-05-04T19:05:30.996Z,101874.16
2023-05-04T19:08:35.929Z,101876.25
2023-05-04T19:11:39.464Z,101872.16
2023-05-04T19:14:44.184Z,101876.72
2023-05-04T19:17:47.757Z,101879.56
2023-05-04T19:20:52.829Z,101887.59
2023-05-04T19:23:56.645Z,101880.69
2023-05-04T19:27:00.772Z,101886.25
2023-05-04T19:30:05.190Z,101887.19
2023-05-04T19:33:09.343Z,101878.56
2023-05-04T19:36:14.536Z,101882.31
2023-05-04T19:39:18.388Z,101885.06
2023-05-04T19:42:22.080Z,101883.22
2023-05-04T19:45:25.677Z,101878.19
2023-05-04T19:48:29.222Z,101876.56
2023-05-04T19:51:34.573Z,101876.50
2023-05-04T19:54:41.330Z,101870.50
2023-05-04T19:57:45.068Z,101870.66
2023-05-04T20:00:49.009Z,101877.09
2023-05-04T20:03:52.774Z,101869.34
2023-05-04T20:06:57.634Z,101875.63
2023-05-04T20:10:01.193Z,101870.44
2023-05-04T20:13:06.027Z,101877.72
2023-05-04T20:16:09.633Z,101871.91
2023-05-04T20:19:13.373Z,101873.91
2023-05-04T20:22:22.561Z,101877.81
2023-05-04T20:25:27.348Z,101881.66
2023-05-04T20:28:32.538Z,101872.34
2023-05-04T20:31:36.167Z,101878.81
2023-05-04T20:34:39.894Z,101879.03
2023-05-04T20:37:44.746Z,101887.16
2023-05-04T20:40:49.360Z,101875.09
2023-05-04T20:43:53.316Z,101883.19
2023-05-04T20:46:56.915Z,101892.88
2023-05-04T20:50:00.449Z,101886.97
2023-05-04T20:53:06.046Z,101889.72
2023-05-04T20:56:09.550Z,101884.66
2023-05-04T20:59:13.061Z,101880.44
2023-05-04T21:02:16.806Z,101884.13
2023-05-04T21:05:20.473Z,101885.94
2023-05-04T21:08:25.586Z,101882.53
2023-05-04T21:11:29.379Z,101884.47
2023-05-04T21:14:32.818Z,101884.59
2023-05-04T21:17:36.327Z,101879.56
2023-05-04T21:20:41.529Z,101889.44
2023-05-04T21:23:46.557Z,101884.34
2023-05-04T21:26:49.993Z,101887.75
2023-05-04T21:29:53.460Z,101884.53
2023-05-04T21:32:57.251Z,101884.72
2023-05-04T21:36:00.764Z,101882.16
2023-05-04T21:39:05.748Z,101881.44
2023-05-04T21:42:09.239Z,101885.94
2023-05-04T21:45:13.187Z,101884.31
2023-05-04T21:48:16.740Z,101878.31
2023-05-04T21:51:20.960Z,101877.59
2023-05-04T21:54:25.978Z,101870.72
2023-05-04T21:57:32.730Z,101872.59
2023-05-04T22:00:36.892Z,101859.53
2023-05-04T22:03:40.365Z,101857.03
2023-05-04T22:06:44.710Z,101855.34
2023-05-04T22:09:49.943Z,101857.22
2023-05-04T22:12:53.645Z,101864.16
2023-05-04T22:15:57.249Z,101845.84
2023-05-04T22:19:00.860Z,101851.94
2023-05-04T22:22:04.512Z,101851.06
2023-05-04T22:25:10.445Z,101846.75
2023-05-04T22:28:13.924Z,101854.59
2023-05-04T22:31:17.504Z,101859.91
2023-05-04T22:34:21.223Z,101853.00
2023-05-04T22:37:24.895Z,101847.75
2023-05-04T22:40:29.835Z,101849.50
2023-05-04T22:43:33.557Z,101844.28
2023-05-04T22:46:37.277Z,101849.53
2023-05-04T22:49:41.415Z,101842.50
2023-05-04T22:52:44.915Z,101845.16
2023-05-04T22:55:50.013Z,101847.81
2023-05-04T22:58:53.500Z,101847.88
2023-05-04T23:01:57.269Z,101851.41
2023-05-04T23:05:00.779Z,101848.00
2023-05-04T23:08:04.876Z,101849.78
2023-05-04T23:11:09.788Z,101848.94
2023-05-04T23:14:13.802Z,101844.63
2023-05-04T23:17:17.678Z,101850.78
2023-05-04T23:20:21.582Z,101845.56
2023-05-04T23:23:25.102Z,101842.16
2023-05-04T23:26:29.988Z,101843.88
2023-05-04T23:29:33.675Z,101845.69
2023-05-04T23:32:37.346Z,101843.97
2023-05-04T23:35:40.804Z,101840.47
2023-05-04T23:38:44.270Z,101830.94
2023-05-04T23:41:49.288Z,101839.63
2023-05-04T23:44:56.509Z,101841.47
2023-05-04T23:48:00.007Z,101839.75
2023-05-04T23:51:04.777Z,101835.38
2023-05-04T23:54:08.330Z,101839.78
2023-05-04T23:57:13.157Z,101830.22
